sensor_id;sensor_type;location;lat;lon;timestamp;temperature;humidity
41926;DHT22;27615;51.826;5.692;2022-12-07T00:00:41;5.30;99.90
41926;DHT22;27615;51.826;5.692;2022-12-07T00:03:06;5.30;99.90
41926;DHT22;27615;51.826;5.692;2022-12-07T00:05:32;5.30;99.90
41926;DHT22;27615;51.826;5.692;2022-12-07T00:07:57;5.30;99.90
41926;DHT22;27615;51.826;5.692;2022-12-07T00:10:23;5.20;99.90
41926;DHT22;27615;51.826;5.692;2022-12-07T00:12:48;5.20;99.90
41926;DHT22;27615;51.826;5.692;2022-12-07T00:15:15;5.20;99.90
41926;DHT22;27615;51.826;5.692;2022-12-07T00:17:41;5.20;99.90
41926;DHT22;27615;51.826;5.692;2022-12-07T00:20:07;5.20;99.90
41926;DHT22;27615;51.826;5.692;2022-12-07T00:22:32;5.20;99.90
41926;DHT22;27615;51.826;5.692;2022-12-07T00:24:58;5.20;99.90
41926;DHT22;27615;51.826;5.692;2022-12-07T00:27:23;5.20;99.90
41926;DHT22;27615;51.826;5.692;2022-12-07T00:29:49;5.20;99.90
41926;DHT22;27615;51.826;5.692;2022-12-07T00:32:14;5.20;99.90
41926;DHT22;27615;51.826;5.692;2022-12-07T00:34:40;5.20;99.90
41926;DHT22;27615;51.826;5.692;2022-12-07T00:37:05;5.10;99.90
41926;DHT22;27615;51.826;5.692;2022-12-07T00:39:31;5.10;99.90
41926;DHT22;27615;51.826;5.692;2022-12-07T00:41:56;5.10;99.90
41926;DHT22;27615;51.826;5.692;2022-12-07T00:44:22;5.10;99.90
41926;DHT22;27615;51.826;5.692;2022-12-07T00:46:47;5.10;99.90
41926;DHT22;27615;51.826;5.692;2022-12-07T00:49:13;5.10;99.90
41926;DHT22;27615;51.826;5.692;2022-12-07T00:51:38;5.10;99.90
41926;DHT22;27615;51.826;5.692;2022-12-07T00:54:04;5.00;99.90
41926;DHT22;27615;51.826;5.692;2022-12-07T00:56:30;5.00;99.90
41926;DHT22;27615;51.826;5.692;2022-12-07T00:58:57;5.00;99.90
41926;DHT22;27615;51.826;5.692;2022-12-07T01:01:24;5.00;99.90
41926;DHT22;27615;51.826;5.692;2022-12-07T01:03:50;4.90;99.90
41926;DHT22;27615;51.826;5.692;2022-12-07T01:06:17;4.90;99.90
41926;DHT22;27615;51.826;5.692;2022-12-07T01:08:44;4.90;99.90
41926;DHT22;27615;51.826;5.692;2022-12-07T01:11:13;4.90;99.90
41926;DHT22;27615;51.826;5.692;2022-12-07T01:13:39;4.80;99.90
41926;DHT22;27615;51.826;5.692;2022-12-07T01:16:06;4.80;99.90
41926;DHT22;27615;51.826;5.692;2022-12-07T01:18:35;4.70;99.90
41926;DHT22;27615;51.826;5.692;2022-12-07T01:21:05;4.60;99.90
41926;DHT22;27615;51.826;5.692;2022-12-07T01:23:32;4.60;99.90
41926;DHT22;27615;51.826;5.692;2022-12-07T01:25:58;4.60;99.90
41926;DHT22;27615;51.826;5.692;2022-12-07T01:28:25;4.60;99.90
41926;DHT22;27615;51.826;5.692;2022-12-07T01:31:04;4.50;99.90
41926;DHT22;27615;51.826;5.692;2022-12-07T01:33:33;4.50;99.90
41926;DHT22;27615;51.826;5.692;2022-12-07T01:36:07;4.50;99.90
41926;DHT22;27615;51.826;5.692;2022-12-07T01:38:33;4.50;99.90
41926;DHT22;27615;51.826;5.692;2022-12-07T01:41:00;4.40;99.90
41926;DHT22;27615;51.826;5.692;2022-12-07T01:43:28;4.40;99.90
41926;DHT22;27615;51.826;5.692;2022-12-07T01:45:54;4.30;99.90
41926;DHT22;27615;51.826;5.692;2022-12-07T01:48:27;4.30;99.90
41926;DHT22;27615;51.826;5.692;2022-12-07T01:50:55;4.30;99.90
41926;DHT22;27615;51.826;5.692;2022-12-07T01:53:25;4.30;99.90
41926;DHT22;27615;51.826;5.692;2022-12-07T01:55:53;4.30;99.90
41926;DHT22;27615;51.826;5.692;2022-12-07T01:58:20;4.20;99.90
41926;DHT22;27615;51.826;5.692;2022-12-07T02:00:46;4.20;99.90
41926;DHT22;27615;51.826;5.692;2022-12-07T02:03:26;4.20;99.90
41926;DHT22;27615;51.826;5.692;2022-12-07T02:05:53;4.30;99.90
41926;DHT22;27615;51.826;5.692;2022-12-07T02:08:19;4.20;99.90
41926;DHT22;27615;51.826;5.692;2022-12-07T02:10:45;4.20;99.90
41926;DHT22;27615;51.826;5.692;2022-12-07T02:13:15;4.20;99.90
41926;DHT22;27615;51.826;5.692;2022-12-07T02:21:56;4.10;99.90
41926;DHT22;27615;51.826;5.692;2022-12-07T02:27:34;4.00;99.90
41926;DHT22;27615;51.826;5.692;2022-12-07T02:30:07;4.00;99.90
41926;DHT22;27615;51.826;5.692;2022-12-07T02:32:42;4.00;99.90
41926;DHT22;27615;51.826;5.692;2022-12-07T02:35:31;4.00;99.90
41926;DHT22;27615;51.826;5.692;2022-12-07T02:40:44;4.00;99.90
41926;DHT22;27615;51.826;5.692;2022-12-07T02:43:25;4.00;99.90
41926;DHT22;27615;51.826;5.692;2022-12-07T02:46:04;3.90;99.90
41926;DHT22;27615;51.826;5.692;2022-12-07T02:48:33;3.90;99.90
41926;DHT22;27615;51.826;5.692;2022-12-07T02:50:59;3.90;99.90
41926;DHT22;27615;51.826;5.692;2022-12-07T02:53:39;3.90;99.90
41926;DHT22;27615;51.826;5.692;2022-12-07T02:56:34;3.90;99.90
41926;DHT22;27615;51.826;5.692;2022-12-07T03:04:33;3.90;99.90
41926;DHT22;27615;51.826;5.692;2022-12-07T03:07:16;3.80;99.90
41926;DHT22;27615;51.826;5.692;2022-12-07T03:10:06;3.90;99.90
41926;DHT22;27615;51.826;5.692;2022-12-07T03:12:42;3.90;99.90
41926;DHT22;27615;51.826;5.692;2022-12-07T03:15:22;3.90;99.90
41926;DHT22;27615;51.826;5.692;2022-12-07T03:17:52;3.90;99.90
41926;DHT22;27615;51.826;5.692;2022-12-07T03:20:22;3.90;99.90
41926;DHT22;27615;51.826;5.692;2022-12-07T03:22:49;3.80;99.90
41926;DHT22;27615;51.826;5.692;2022-12-07T03:25:17;3.90;99.90
41926;DHT22;27615;51.826;5.692;2022-12-07T03:30:17;3.90;99.90
41926;DHT22;27615;51.826;5.692;2022-12-07T03:33:04;3.90;99.90
41926;DHT22;27615;51.826;5.692;2022-12-07T03:35:36;3.90;99.90
41926;DHT22;27615;51.826;5.692;2022-12-07T03:38:27;3.90;99.90
41926;DHT22;27615;51.826;5.692;2022-12-07T03:41:28;3.90;99.90
41926;DHT22;27615;51.826;5.692;2022-12-07T03:43:54;3.90;99.90
41926;DHT22;27615;51.826;5.692;2022-12-07T03:54:28;3.90;99.90
41926;DHT22;27615;51.826;5.692;2022-12-07T03:56:56;3.90;99.90
41926;DHT22;27615;51.826;5.692;2022-12-07T03:59:23;3.90;99.90
41926;DHT22;27615;51.826;5.692;2022-12-07T04:01:54;3.80;99.90
41926;DHT22;27615;51.826;5.692;2022-12-07T04:04:21;3.90;99.90
41926;DHT22;27615;51.826;5.692;2022-12-07T04:06:47;3.90;99.90
41926;DHT22;27615;51.826;5.692;2022-12-07T04:09:12;3.90;99.90
41926;DHT22;27615;51.826;5.692;2022-12-07T04:11:39;4.00;99.90
41926;DHT22;27615;51.826;5.692;2022-12-07T04:14:05;4.00;99.90
41926;DHT22;27615;51.826;5.692;2022-12-07T04:16:57;4.00;99.90
41926;DHT22;27615;51.826;5.692;2022-12-07T04:19:25;4.00;99.90
41926;DHT22;27615;51.826;5.692;2022-12-07T04:21:51;4.00;99.90
41926;DHT22;27615;51.826;5.692;2022-12-07T04:24:16;4.00;99.90
41926;DHT22;27615;51.826;5.692;2022-12-07T04:26:43;4.00;99.90
41926;DHT22;27615;51.826;5.692;2022-12-07T04:29:09;4.10;99.90
41926;DHT22;27615;51.826;5.692;2022-12-07T04:31:35;4.10;99.90
41926;DHT22;27615;51.826;5.692;2022-12-07T04:34:01;4.10;99.90
41926;DHT22;27615;51.826;5.692;2022-12-07T04:36:27;4.10;99.90
41926;DHT22;27615;51.826;5.692;2022-12-07T04:38:54;4.10;99.90
41926;DHT22;27615;51.826;5.692;2022-12-07T04:41:20;4.10;99.90
41926;DHT22;27615;51.826;5.692;2022-12-07T04:43:53;4.10;99.90
41926;DHT22;27615;51.826;5.692;2022-12-07T04:46:19;4.10;99.90
41926;DHT22;27615;51.826;5.692;2022-12-07T04:48:44;4.10;99.90
41926;DHT22;27615;51.826;5.692;2022-12-07T04:51:10;4.10;99.90
41926;DHT22;27615;51.826;5.692;2022-12-07T04:53:35;4.00;99.90
41926;DHT22;27615;51.826;5.692;2022-12-07T04:56:01;4.10;99.90
41926;DHT22;27615;51.826;5.692;2022-12-07T04:58:26;4.10;99.90
41926;DHT22;27615;51.826;5.692;2022-12-07T05:00:54;4.10;99.90
41926;DHT22;27615;51.826;5.692;2022-12-07T05:03:20;4.10;99.90
41926;DHT22;27615;51.826;5.692;2022-12-07T05:05:46;4.10;99.90
41926;DHT22;27615;51.826;5.692;2022-12-07T05:08:11;4.10;99.90
41926;DHT22;27615;51.826;5.692;2022-12-07T05:10:37;4.10;99.90
41926;DHT22;27615;51.826;5.692;2022-12-07T05:13:02;4.20;99.90
41926;DHT22;27615;51.826;5.692;2022-12-07T05:15:28;4.20;99.90
41926;DHT22;27615;51.826;5.692;2022-12-07T05:17:53;4.10;99.90
41926;DHT22;27615;51.826;5.692;2022-12-07T05:20:19;4.10;99.90
41926;DHT22;27615;51.826;5.692;2022-12-07T05:22:44;4.20;99.90
41926;DHT22;27615;51.826;5.692;2022-12-07T05:25:10;4.20;99.90
41926;DHT22;27615;51.826;5.692;2022-12-07T05:27:35;4.20;99.90
41926;DHT22;27615;51.826;5.692;2022-12-07T05:30:01;4.20;99.90
41926;DHT22;27615;51.826;5.692;2022-12-07T05:32:27;4.20;99.90
41926;DHT22;27615;51.826;5.692;2022-12-07T05:34:52;4.20;99.90
41926;DHT22;27615;51.826;5.692;2022-12-07T05:37:20;4.20;99.90
41926;DHT22;27615;51.826;5.692;2022-12-07T05:39:45;4.20;99.90
41926;DHT22;27615;51.826;5.692;2022-12-07T05:42:11;4.10;99.90
41926;DHT22;27615;51.826;5.692;2022-12-07T05:44:44;4.20;99.90
41926;DHT22;27615;51.826;5.692;2022-12-07T05:47:11;4.20;99.90
41926;DHT22;27615;51.826;5.692;2022-12-07T05:49:37;4.20;99.90
41926;DHT22;27615;51.826;5.692;2022-12-07T05:52:03;4.20;99.90
41926;DHT22;27615;51.826;5.692;2022-12-07T05:54:29;4.20;99.90
41926;DHT22;27615;51.826;5.692;2022-12-07T05:56:55;4.20;99.90
41926;DHT22;27615;51.826;5.692;2022-12-07T05:59:20;4.20;99.90
41926;DHT22;27615;51.826;5.692;2022-12-07T06:02:04;4.20;99.90
41926;DHT22;27615;51.826;5.692;2022-12-07T06:04:33;4.20;99.90
41926;DHT22;27615;51.826;5.692;2022-12-07T06:06:58;4.20;99.90
41926;DHT22;27615;51.826;5.692;2022-12-07T06:09:25;4.20;99.90
41926;DHT22;27615;51.826;5.692;2022-12-07T06:11:51;4.20;99.90
41926;DHT22;27615;51.826;5.692;2022-12-07T06:14:35;4.10;99.90
41926;DHT22;27615;51.826;5.692;2022-12-07T06:17:01;4.10;99.90
41926;DHT22;27615;51.826;5.692;2022-12-07T06:19:26;4.10;99.90
41926;DHT22;27615;51.826;5.692;2022-12-07T06:21:52;4.10;99.90
41926;DHT22;27615;51.826;5.692;2022-12-07T06:24:18;4.10;99.90
41926;DHT22;27615;51.826;5.692;2022-12-07T06:26:44;4.00;99.90
41926;DHT22;27615;51.826;5.692;2022-12-07T06:29:11;4.00;99.90
41926;DHT22;27615;51.826;5.692;2022-12-07T06:31:37;4.10;99.90
41926;DHT22;27615;51.826;5.692;2022-12-07T06:34:05;4.10;99.90
41926;DHT22;27615;51.826;5.692;2022-12-07T06:36:31;4.10;99.90
41926;DHT22;27615;51.826;5.692;2022-12-07T06:38:57;4.10;99.90
41926;DHT22;27615;51.826;5.692;2022-12-07T06:41:23;4.10;99.90
41926;DHT22;27615;51.826;5.692;2022-12-07T06:43:49;4.10;99.90
41926;DHT22;27615;51.826;5.692;2022-12-07T06:46:15;4.10;99.90
41926;DHT22;27615;51.826;5.692;2022-12-07T06:48:41;4.10;99.90
41926;DHT22;27615;51.826;5.692;2022-12-07T06:51:07;4.10;99.90
41926;DHT22;27615;51.826;5.692;2022-12-07T06:53:33;4.10;99.90
41926;DHT22;27615;51.826;5.692;2022-12-07T06:55:58;4.10;99.90
41926;DHT22;27615;51.826;5.692;2022-12-07T06:58:24;4.10;99.90
41926;DHT22;27615;51.826;5.692;2022-12-07T07:00:49;4.10;99.90
41926;DHT22;27615;51.826;5.692;2022-12-07T07:03:16;4.10;99.90
41926;DHT22;27615;51.826;5.692;2022-12-07T07:05:42;4.00;99.90
41926;DHT22;27615;51.826;5.692;2022-12-07T07:08:07;4.00;99.90
41926;DHT22;27615;51.826;5.692;2022-12-07T07:10:33;4.00;99.90
41926;DHT22;27615;51.826;5.692;2022-12-07T07:12:59;4.00;99.90
41926;DHT22;27615;51.826;5.692;2022-12-07T07:15:24;3.90;99.90
41926;DHT22;27615;51.826;5.692;2022-12-07T07:17:50;3.90;99.90
41926;DHT22;27615;51.826;5.692;2022-12-07T07:20:16;3.90;99.90
41926;DHT22;27615;51.826;5.692;2022-12-07T07:22:41;3.90;99.90
41926;DHT22;27615;51.826;5.692;2022-12-07T07:25:07;3.90;99.90
41926;DHT22;27615;51.826;5.692;2022-12-07T07:27:32;3.90;99.90
41926;DHT22;27615;51.826;5.692;2022-12-07T07:29:58;3.80;99.90
41926;DHT22;27615;51.826;5.692;2022-12-07T07:32:23;3.90;99.90
41926;DHT22;27615;51.826;5.692;2022-12-07T07:34:49;3.80;99.90
41926;DHT22;27615;51.826;5.692;2022-12-07T07:37:14;3.70;99.90
41926;DHT22;27615;51.826;5.692;2022-12-07T07:39:40;3.70;99.90
41926;DHT22;27615;51.826;5.692;2022-12-07T07:42:06;3.70;99.90
41926;DHT22;27615;51.826;5.692;2022-12-07T07:44:33;3.70;99.90
41926;DHT22;27615;51.826;5.692;2022-12-07T07:46:59;3.70;99.90
41926;DHT22;27615;51.826;5.692;2022-12-07T07:49:24;3.70;99.90
41926;DHT22;27615;51.826;5.692;2022-12-07T07:51:50;3.70;99.90
41926;DHT22;27615;51.826;5.692;2022-12-07T07:54:16;3.70;99.90
41926;DHT22;27615;51.826;5.692;2022-12-07T07:56:41;3.60;99.90
41926;DHT22;27615;51.826;5.692;2022-12-07T07:59:09;3.70;99.90
41926;DHT22;27615;51.826;5.692;2022-12-07T08:01:35;3.70;99.90
41926;DHT22;27615;51.826;5.692;2022-12-07T08:04:00;3.70;99.90
41926;DHT22;27615;51.826;5.692;2022-12-07T08:06:26;3.70;99.90
41926;DHT22;27615;51.826;5.692;2022-12-07T08:08:52;3.80;99.90
41926;DHT22;27615;51.826;5.692;2022-12-07T08:11:18;3.70;99.90
41926;DHT22;27615;51.826;5.692;2022-12-07T08:13:45;3.70;99.90
41926;DHT22;27615;51.826;5.692;2022-12-07T08:16:12;3.70;99.90
41926;DHT22;27615;51.826;5.692;2022-12-07T08:18:39;3.70;99.90
41926;DHT22;27615;51.826;5.692;2022-12-07T08:21:06;3.70;99.90
41926;DHT22;27615;51.826;5.692;2022-12-07T08:23:32;3.70;99.90
41926;DHT22;27615;51.826;5.692;2022-12-07T08:26:07;3.80;99.90
41926;DHT22;27615;51.826;5.692;2022-12-07T08:28:33;3.80;99.90
41926;DHT22;27615;51.826;5.692;2022-12-07T08:31:00;3.80;99.90
41926;DHT22;27615;51.826;5.692;2022-12-07T08:33:26;3.80;99.90
41926;DHT22;27615;51.826;5.692;2022-12-07T08:35:52;3.80;99.90
41926;DHT22;27615;51.826;5.692;2022-12-07T08:38:17;3.80;99.90
41926;DHT22;27615;51.826;5.692;2022-12-07T08:40:43;3.80;99.90
41926;DHT22;27615;51.826;5.692;2022-12-07T08:43:08;3.80;99.90
41926;DHT22;27615;51.826;5.692;2022-12-07T08:45:34;3.80;99.90
41926;DHT22;27615;51.826;5.692;2022-12-07T08:48:05;3.80;99.90
41926;DHT22;27615;51.826;5.692;2022-12-07T08:50:32;3.90;99.90
41926;DHT22;27615;51.826;5.692;2022-12-07T08:52:58;4.00;99.90
41926;DHT22;27615;51.826;5.692;2022-12-07T08:55:26;4.10;99.90
41926;DHT22;27615;51.826;5.692;2022-12-07T08:57:52;4.10;99.90
41926;DHT22;27615;51.826;5.692;2022-12-07T09:00:18;4.20;99.90
41926;DHT22;27615;51.826;5.692;2022-12-07T09:02:44;4.30;99.90
41926;DHT22;27615;51.826;5.692;2022-12-07T09:05:11;4.30;99.90
41926;DHT22;27615;51.826;5.692;2022-12-07T09:07:37;4.40;99.90
41926;DHT22;27615;51.826;5.692;2022-12-07T09:10:03;4.50;99.90
41926;DHT22;27615;51.826;5.692;2022-12-07T09:12:29;4.50;99.90
41926;DHT22;27615;51.826;5.692;2022-12-07T09:14:55;4.60;99.90
41926;DHT22;27615;51.826;5.692;2022-12-07T09:17:20;4.60;99.90
41926;DHT22;27615;51.826;5.692;2022-12-07T09:19:46;4.70;99.90
41926;DHT22;27615;51.826;5.692;2022-12-07T09:22:12;4.90;99.90
41926;DHT22;27615;51.826;5.692;2022-12-07T09:24:37;5.00;99.90
41926;DHT22;27615;51.826;5.692;2022-12-07T09:27:03;5.20;99.90
41926;DHT22;27615;51.826;5.692;2022-12-07T09:29:28;5.30;99.90
41926;DHT22;27615;51.826;5.692;2022-12-07T09:31:54;5.40;99.90
41926;DHT22;27615;51.826;5.692;2022-12-07T09:34:19;5.40;99.90
41926;DHT22;27615;51.826;5.692;2022-12-07T09:36:45;5.40;99.90
41926;DHT22;27615;51.826;5.692;2022-12-07T09:39:11;5.40;99.90
41926;DHT22;27615;51.826;5.692;2022-12-07T09:41:42;5.50;99.90
41926;DHT22;27615;51.826;5.692;2022-12-07T09:44:12;5.60;99.90
41926;DHT22;27615;51.826;5.692;2022-12-07T09:46:40;5.70;99.90
41926;DHT22;27615;51.826;5.692;2022-12-07T09:49:21;5.70;99.90
41926;DHT22;27615;51.826;5.692;2022-12-07T09:51:55;5.70;99.90
41926;DHT22;27615;51.826;5.692;2022-12-07T09:54:24;5.60;99.90
41926;DHT22;27615;51.826;5.692;2022-12-07T09:56:49;5.60;99.90
41926;DHT22;27615;51.826;5.692;2022-12-07T09:59:18;5.50;99.90
41926;DHT22;27615;51.826;5.692;2022-12-07T10:01:49;5.50;99.90
41926;DHT22;27615;51.826;5.692;2022-12-07T10:04:21;5.60;99.90
41926;DHT22;27615;51.826;5.692;2022-12-07T10:06:47;5.70;99.90
41926;DHT22;27615;51.826;5.692;2022-12-07T10:09:15;5.80;99.90
41926;DHT22;27615;51.826;5.692;2022-12-07T10:12:05;5.80;99.90
41926;DHT22;27615;51.826;5.692;2022-12-07T10:14:32;5.90;99.90
41926;DHT22;27615;51.826;5.692;2022-12-07T10:16:59;6.00;99.90
41926;DHT22;27615;51.826;5.692;2022-12-07T10:19:30;6.00;99.90
41926;DHT22;27615;51.826;5.692;2022-12-07T10:22:10;6.10;99.90
41926;DHT22;27615;51.826;5.692;2022-12-07T10:24:37;6.20;99.90
41926;DHT22;27615;51.826;5.692;2022-12-07T10:27:05;6.40;99.90
41926;DHT22;27615;51.826;5.692;2022-12-07T10:29:48;6.60;99.90
41926;DHT22;27615;51.826;5.692;2022-12-07T10:34:40;7.00;99.90
41926;DHT22;27615;51.826;5.692;2022-12-07T10:39:57;7.40;99.90
41926;DHT22;27615;51.826;5.692;2022-12-07T10:42:30;7.50;99.90
41926;DHT22;27615;51.826;5.692;2022-12-07T10:47:44;7.90;99.90
41926;DHT22;27615;51.826;5.692;2022-12-07T10:59:23;7.50;99.90
41926;DHT22;27615;51.826;5.692;2022-12-07T11:13:25;7.60;99.90
41926;DHT22;27615;51.826;5.692;2022-12-07T11:16:06;7.70;99.90
41926;DHT22;27615;51.826;5.692;2022-12-07T11:18:40;7.80;99.90
41926;DHT22;27615;51.826;5.692;2022-12-07T11:23:57;8.40;99.90
41926;DHT22;27615;51.826;5.692;2022-12-07T11:32:14;9.20;99.90
41926;DHT22;27615;51.826;5.692;2022-12-07T11:37:57;9.90;99.90
41926;DHT22;27615;51.826;5.692;2022-12-07T11:40:30;10.10;99.90
41926;DHT22;27615;51.826;5.692;2022-12-07T11:43:10;10.20;99.90
41926;DHT22;27615;51.826;5.692;2022-12-07T11:45:42;10.40;99.90
41926;DHT22;27615;51.826;5.692;2022-12-07T11:48:24;10.50;99.90
41926;DHT22;27615;51.826;5.692;2022-12-07T11:50:59;10.60;99.90
41926;DHT22;27615;51.826;5.692;2022-12-07T11:53:46;10.70;99.90
41926;DHT22;27615;51.826;5.692;2022-12-07T11:56:17;10.60;99.90
41926;DHT22;27615;51.826;5.692;2022-12-07T12:06:43;9.70;99.90
41926;DHT22;27615;51.826;5.692;2022-12-07T12:09:15;9.50;99.90
41926;DHT22;27615;51.826;5.692;2022-12-07T12:12:28;9.30;99.90
41926;DHT22;27615;51.826;5.692;2022-12-07T12:18:07;9.00;99.90
41926;DHT22;27615;51.826;5.692;2022-12-07T12:23:45;8.80;99.90
41926;DHT22;27615;51.826;5.692;2022-12-07T12:26:20;8.70;99.90
41926;DHT22;27615;51.826;5.692;2022-12-07T12:29:02;8.60;99.90
41926;DHT22;27615;51.826;5.692;2022-12-07T12:31:31;8.50;99.90
41926;DHT22;27615;51.826;5.692;2022-12-07T12:34:00;8.50;99.90
41926;DHT22;27615;51.826;5.692;2022-12-07T12:39:16;8.50;99.90
41926;DHT22;27615;51.826;5.692;2022-12-07T12:46:55;8.60;99.90
41926;DHT22;27615;51.826;5.692;2022-12-07T12:49:30;8.70;99.90
41926;DHT22;27615;51.826;5.692;2022-12-07T12:52:45;9.10;99.90
41926;DHT22;27615;51.826;5.692;2022-12-07T12:57:32;11.30;99.40
41926;DHT22;27615;51.826;5.692;2022-12-07T12:59:59;11.40;98.40
41926;DHT22;27615;51.826;5.692;2022-12-07T13:02:30;12.00;98.30
41926;DHT22;27615;51.826;5.692;2022-12-07T13:05:18;13.60;97.40
41926;DHT22;27615;51.826;5.692;2022-12-07T13:13:03;14.30;93.10
41926;DHT22;27615;51.826;5.692;2022-12-07T13:15:38;14.10;92.70
41926;DHT22;27615;51.826;5.692;2022-12-07T13:20:51;16.10;91.00
41926;DHT22;27615;51.826;5.692;2022-12-07T13:23:37;17.30;87.90
41926;DHT22;27615;51.826;5.692;2022-12-07T13:26:15;18.30;83.40
41926;DHT22;27615;51.826;5.692;2022-12-07T13:28:49;19.40;78.60
41926;DHT22;27615;51.826;5.692;2022-12-07T13:31:35;20.10;75.40
41926;DHT22;27615;51.826;5.692;2022-12-07T13:34:04;20.00;72.40
41926;DHT22;27615;51.826;5.692;2022-12-07T13:36:37;19.00;71.70
41926;DHT22;27615;51.826;5.692;2022-12-07T13:39:19;17.90;72.50
41926;DHT22;27615;51.826;5.692;2022-12-07T13:41:50;17.00;73.70
41926;DHT22;27615;51.826;5.692;2022-12-07T13:44:17;16.40;74.50
41926;DHT22;27615;51.826;5.692;2022-12-07T13:49:31;15.30;76.20
41926;DHT22;27615;51.826;5.692;2022-12-07T13:52:23;14.70;77.00
41926;DHT22;27615;51.826;5.692;2022-12-07T13:55:14;14.30;76.90
41926;DHT22;27615;51.826;5.692;2022-12-07T13:57:40;13.80;77.30
41926;DHT22;27615;51.826;5.692;2022-12-07T14:00:17;13.40;78.30
41926;DHT22;27615;51.826;5.692;2022-12-07T14:03:02;13.00;79.00
41926;DHT22;27615;51.826;5.692;2022-12-07T14:05:32;12.70;79.40
41926;DHT22;27615;51.826;5.692;2022-12-07T14:08:20;12.30;80.20
41926;DHT22;27615;51.826;5.692;2022-12-07T14:13:33;11.90;81.00
41926;DHT22;27615;51.826;5.692;2022-12-07T14:16:00;11.70;81.40
41926;DHT22;27615;51.826;5.692;2022-12-07T14:18:28;11.40;82.20
41926;DHT22;27615;51.826;5.692;2022-12-07T14:21:14;11.30;82.60
41926;DHT22;27615;51.826;5.692;2022-12-07T14:23:41;11.10;83.00
41926;DHT22;27615;51.826;5.692;2022-12-07T14:26:20;10.90;83.50
41926;DHT22;27615;51.826;5.692;2022-12-07T14:28:46;10.80;83.80
41926;DHT22;27615;51.826;5.692;2022-12-07T14:31:13;10.60;84.50
41926;DHT22;27615;51.826;5.692;2022-12-07T14:33:40;10.40;84.90
41926;DHT22;27615;51.826;5.692;2022-12-07T14:36:08;10.30;85.50
41926;DHT22;27615;51.826;5.692;2022-12-07T14:38:34;10.20;86.00
41926;DHT22;27615;51.826;5.692;2022-12-07T14:40:59;10.00;86.70
41926;DHT22;27615;51.826;5.692;2022-12-07T14:43:45;10.00;87.60
41926;DHT22;27615;51.826;5.692;2022-12-07T14:46:11;10.20;88.20
41926;DHT22;27615;51.826;5.692;2022-12-07T14:48:36;10.40;87.80
41926;DHT22;27615;51.826;5.692;2022-12-07T14:51:02;10.60;87.20
41926;DHT22;27615;51.826;5.692;2022-12-07T14:53:33;10.80;86.60
41926;DHT22;27615;51.826;5.692;2022-12-07T14:55:59;10.90;85.90
41926;DHT22;27615;51.826;5.692;2022-12-07T14:58:25;11.00;85.50
41926;DHT22;27615;51.826;5.692;2022-12-07T15:00:50;10.90;85.20
41926;DHT22;27615;51.826;5.692;2022-12-07T15:03:16;10.80;84.90
41926;DHT22;27615;51.826;5.692;2022-12-07T15:05:41;10.60;84.60
41926;DHT22;27615;51.826;5.692;2022-12-07T15:08:09;10.30;84.90
41926;DHT22;27615;51.826;5.692;2022-12-07T15:10:35;10.00;85.00
41926;DHT22;27615;51.826;5.692;2022-12-07T15:13:04;9.80;85.60
41926;DHT22;27615;51.826;5.692;2022-12-07T15:15:50;9.60;86.00
41926;DHT22;27615;51.826;5.692;2022-12-07T15:18:16;9.40;86.80
41926;DHT22;27615;51.826;5.692;2022-12-07T15:20:42;9.20;87.20
41926;DHT22;27615;51.826;5.692;2022-12-07T15:23:09;9.10;87.60
41926;DHT22;27615;51.826;5.692;2022-12-07T15:25:34;9.00;88.00
41926;DHT22;27615;51.826;5.692;2022-12-07T15:28:00;8.90;88.40
41926;DHT22;27615;51.826;5.692;2022-12-07T15:30:25;8.70;88.70
41926;DHT22;27615;51.826;5.692;2022-12-07T15:32:53;8.60;89.20
41926;DHT22;27615;51.826;5.692;2022-12-07T15:35:20;8.50;89.60
41926;DHT22;27615;51.826;5.692;2022-12-07T15:37:47;8.40;90.00
41926;DHT22;27615;51.826;5.692;2022-12-07T15:40:13;8.30;90.10
41926;DHT22;27615;51.826;5.692;2022-12-07T15:42:39;8.20;90.30
41926;DHT22;27615;51.826;5.692;2022-12-07T15:45:07;8.10;90.50
41926;DHT22;27615;51.826;5.692;2022-12-07T15:47:41;8.00;90.70
41926;DHT22;27615;51.826;5.692;2022-12-07T15:50:13;7.90;90.90
41926;DHT22;27615;51.826;5.692;2022-12-07T15:52:39;7.80;91.10
41926;DHT22;27615;51.826;5.692;2022-12-07T15:55:05;7.70;91.30
41926;DHT22;27615;51.826;5.692;2022-12-07T15:57:35;7.60;91.50
41926;DHT22;27615;51.826;5.692;2022-12-07T16:00:07;7.50;91.70
41926;DHT22;27615;51.826;5.692;2022-12-07T16:02:33;7.50;91.90
41926;DHT22;27615;51.826;5.692;2022-12-07T16:04:59;7.40;92.00
41926;DHT22;27615;51.826;5.692;2022-12-07T16:07:24;7.40;92.20
41926;DHT22;27615;51.826;5.692;2022-12-07T16:09:50;7.30;92.40
41926;DHT22;27615;51.826;5.692;2022-12-07T16:12:16;7.10;92.60
41926;DHT22;27615;51.826;5.692;2022-12-07T16:14:41;7.10;92.80
41926;DHT22;27615;51.826;5.692;2022-12-07T16:17:08;7.10;93.00
41926;DHT22;27615;51.826;5.692;2022-12-07T16:19:35;7.00;93.10
41926;DHT22;27615;51.826;5.692;2022-12-07T16:22:01;6.90;93.20
41926;DHT22;27615;51.826;5.692;2022-12-07T16:24:27;6.80;93.50
41926;DHT22;27615;51.826;5.692;2022-12-07T16:26:53;6.80;93.60
41926;DHT22;27615;51.826;5.692;2022-12-07T16:29:19;6.80;93.80
41926;DHT22;27615;51.826;5.692;2022-12-07T16:31:45;6.70;93.90
41926;DHT22;27615;51.826;5.692;2022-12-07T16:34:11;6.70;94.10
41926;DHT22;27615;51.826;5.692;2022-12-07T16:36:37;6.70;94.30
41926;DHT22;27615;51.826;5.692;2022-12-07T16:39:03;6.60;94.40
41926;DHT22;27615;51.826;5.692;2022-12-07T16:41:29;6.60;94.50
41926;DHT22;27615;51.826;5.692;2022-12-07T16:43:55;6.60;94.70
41926;DHT22;27615;51.826;5.692;2022-12-07T16:46:20;6.50;94.80
41926;DHT22;27615;51.826;5.692;2022-12-07T16:48:46;6.40;95.00
41926;DHT22;27615;51.826;5.692;2022-12-07T16:51:13;6.40;95.20
41926;DHT22;27615;51.826;5.692;2022-12-07T16:53:40;6.40;95.40
41926;DHT22;27615;51.826;5.692;2022-12-07T16:56:14;6.40;95.60
41926;DHT22;27615;51.826;5.692;2022-12-07T16:58:42;6.30;95.80
41926;DHT22;27615;51.826;5.692;2022-12-07T17:01:16;6.20;96.00
41926;DHT22;27615;51.826;5.692;2022-12-07T17:03:42;6.10;96.30
41926;DHT22;27615;51.826;5.692;2022-12-07T17:06:34;6.00;96.80
41926;DHT22;27615;51.826;5.692;2022-12-07T17:09:00;5.90;97.30
41926;DHT22;27615;51.826;5.692;2022-12-07T17:11:28;5.90;97.70
41926;DHT22;27615;51.826;5.692;2022-12-07T17:13:54;5.90;98.20
41926;DHT22;27615;51.826;5.692;2022-12-07T17:16:38;5.80;98.10
41926;DHT22;27615;51.826;5.692;2022-12-07T17:19:05;5.80;98.40
41926;DHT22;27615;51.826;5.692;2022-12-07T17:21:34;5.80;98.60
41926;DHT22;27615;51.826;5.692;2022-12-07T17:24:00;5.80;98.70
41926;DHT22;27615;51.826;5.692;2022-12-07T17:26:26;5.80;98.90
41926;DHT22;27615;51.826;5.692;2022-12-07T17:28:52;5.90;99.10
41926;DHT22;27615;51.826;5.692;2022-12-07T17:31:20;5.80;99.10
41926;DHT22;27615;51.826;5.692;2022-12-07T17:33:46;5.80;99.20
41926;DHT22;27615;51.826;5.692;2022-12-07T17:36:23;5.80;99.40
41926;DHT22;27615;51.826;5.692;2022-12-07T17:38:50;5.90;99.60
41926;DHT22;27615;51.826;5.692;2022-12-07T17:41:20;5.80;99.70
41926;DHT22;27615;51.826;5.692;2022-12-07T17:44:06;5.80;99.80